Argonne, South Dakota
Current Conditions -  °F | °C
As of 5:15 AM on Thursday 23 Oct 2014 (Local Time) from KMDS Reporting Station
Haze Haze  
Wind Chill: 39°   Ceiling: Unl
Heat Index: 43°   Visibility: 1mi
Dew Point: 43°   Wind: 7mph
Humidity: 100%   Direction: 220°SW
Pressure: 30"   Gusts: NA
Location:  44.0529°N, 97.5161°W
Report Text: KMDS 231015Z AUTO 22006KT 1SM BR CLR 06/06 A3000 RMK AO2
Loading
Personal Weather Stations






























Interactive Weather Map
Tropical Storm Tracking
New forecast layout! Learn more

10-Day Weather Forecast

Advertisements
Track Severe Weather on mobile